Time;durP1;ratioP1;P1;durP2;ratioP2;P2;SDS_P1;SDS_P2;PMS_P1;PMS_P2;Temp;Humidity;BMP_temperature;BMP_pressure;BME280_temperature;BME280_humidity;BME280_pressure;Samples;Min_cycle;Max_cycle;Signal;HPM_P1;HPM_P2
2021/03/13 00:00:41;;;;;;;16.27;6.50;;;;;;;5.08;57.09;99218.31;4859652;28;97340;-73
2021/03/13 00:03:06;;;;;;;12.20;6.07;;;;;;;5.12;56.51;99219.91;4859341;28;97240;-74
2021/03/13 00:05:35;;;;;;;19.93;6.63;;;;;;;5.19;56.83;99216.25;4860531;28;97291;-74
2021/03/13 00:08:02;;;;;;;20.00;7.03;;;;;;;5.17;56.89;99212.84;4858979;28;97452;-73
2021/03/13 00:10:28;;;;;;;15.33;6.37;;;;;;;5.36;56.07;99223.56;4858494;28;101022;-74
2021/03/13 00:12:54;;;;;;;16.03;5.70;;;;;;;5.34;56.37;99209.72;4870851;28;97998;-75
2021/03/13 00:15:20;;;;;;;17.10;6.10;;;;;;;5.28;56.54;99210.78;4860766;28;96870;-77
2021/03/13 00:17:47;;;;;;;17.00;6.67;;;;;;;5.36;56.42;99203.59;4854699;28;100861;-75
2021/03/13 00:20:16;;;;;;;14.13;5.80;;;;;;;5.44;56.02;99206.81;4875451;28;101490;-73
2021/03/13 00:22:43;;;;;;;14.53;6.87;;;;;;;5.42;56.30;99190.38;4876153;28;96922;-74
2021/03/13 00:25:10;;;;;;;13.77;5.73;;;;;;;5.55;55.84;99193.44;4870835;28;96897;-73
2021/03/13 00:27:45;;;;;;;15.73;5.53;;;;;;;5.50;55.91;99182.34;4847467;28;97920;-74
2021/03/13 00:30:33;;;;;;;9.70;4.77;;;;;;;5.56;55.89;99186.50;4876959;28;98609;-73
2021/03/13 00:33:01;;;;;;;10.60;4.60;;;;;;;5.65;55.69;99179.25;4861139;28;96504;-74
2021/03/13 00:35:28;;;;;;;8.30;4.33;;;;;;;5.74;55.23;99179.88;4877592;28;96836;-73
2021/03/13 00:37:54;;;;;;;14.00;4.93;;;;;;;5.72;55.37;99179.06;4877357;28;98024;-80
2021/03/13 00:40:23;;;;;;;11.97;4.30;;;;;;;5.65;55.43;99176.66;4876995;28;98258;-73
2021/03/13 00:42:48;;;;;;;13.37;3.97;;;;;;;5.67;55.71;99172.25;4877603;28;97085;-74
2021/03/13 00:45:17;;;;;;;11.93;5.00;;;;;;;5.70;55.78;99173.03;4892850;28;97416;-74
2021/03/13 00:47:44;;;;;;;10.93;4.33;;;;;;;5.60;56.02;99167.28;4858991;28;100292;-75
2021/03/13 00:50:10;;;;;;;12.13;4.20;;;;;;;5.61;56.01;99167.25;4842743;28;101483;-74
2021/03/13 00:52:36;;;;;;;9.03;3.73;;;;;;;5.61;55.98;99159.44;4843234;28;96728;-74
2021/03/13 00:55:04;;;;;;;7.50;3.27;;;;;;;5.65;55.86;99160.19;4858907;28;96755;-74
2021/03/13 00:57:31;;;;;;;11.00;3.80;;;;;;;5.57;56.31;99167.38;4841311;28;100839;-74
2021/03/13 00:59:57;;;;;;;7.20;3.57;;;;;;;5.57;56.23;99160.41;4854634;28;101342;-79
2021/03/13 01:02:22;;;;;;;9.60;4.30;;;;;;;5.52;56.45;99151.03;4838940;28;97826;-74
2021/03/13 01:04:48;;;;;;;10.40;4.50;;;;;;;5.44;56.96;99159.13;4859144;28;97191;-74
2021/03/13 01:07:15;;;;;;;10.83;4.63;;;;;;;5.35;56.71;99151.56;4857857;28;101177;-74
2021/03/13 01:09:41;;;;;;;10.37;4.03;;;;;;;5.27;57.43;99146.63;4874898;28;97881;-74
2021/03/13 01:12:07;;;;;;;12.00;4.07;;;;;;;5.15;57.32;99147.84;4858347;28;97152;-73
2021/03/13 01:14:34;;;;;;;10.47;4.00;;;;;;;5.20;57.58;99143.34;4842800;28;97407;-74
2021/03/13 01:16:59;;;;;;;8.97;4.07;;;;;;;5.11;57.76;99145.38;4857249;28;101210;-77
2021/03/13 01:19:26;;;;;;;10.20;3.83;;;;;;;5.21;57.71;99145.06;4859135;28;97827;-74
2021/03/13 01:21:54;;;;;;;10.80;4.00;;;;;;;5.19;57.51;99133.84;4874846;28;97266;-74
2021/03/13 01:24:20;;;;;;;8.60;4.20;;;;;;;5.24;57.66;99132.88;4858007;28;96851;-75
2021/03/13 01:26:46;;;;;;;7.97;3.43;;;;;;;5.24;57.89;99131.13;4874644;28;97895;-74
2021/03/13 01:29:13;;;;;;;7.97;3.53;;;;;;;5.28;57.33;99134.47;4857814;28;101713;-74
2021/03/13 01:31:51;;;;;;;9.00;3.30;;;;;;;5.31;57.39;99131.75;4858978;28;97115;-74
2021/03/13 01:34:23;;;;;;;9.55;3.80;;;;;;;5.28;57.73;99127.50;4874555;28;97238;-74
2021/03/13 01:36:57;;;;;;;9.40;3.90;;;;;;;5.35;57.79;99121.22;4844708;28;101410;-79
2021/03/13 01:39:23;;;;;;;8.53;2.90;;;;;;;5.49;57.17;99120.75;4874428;28;98983;-74
2021/03/13 01:41:49;;;;;;;6.40;2.97;;;;;;;5.61;56.83;99114.28;4858278;28;97212;-74
2021/03/13 01:44:15;;;;;;;7.13;3.03;;;;;;;5.72;56.32;99104.38;4842686;28;97513;-74
2021/03/13 01:46:41;;;;;;;6.00;3.07;;;;;;;5.80;55.92;99110.19;4842697;28;100777;-74
2021/03/13 01:49:17;;;;;;;8.43;3.30;;;;;;;5.95;55.46;99114.06;4857134;28;101578;-74
2021/03/13 01:51:42;;;;;;;6.57;2.63;;;;;;;6.07;55.37;99104.97;4856142;28;97158;-74
2021/03/13 01:54:11;;;;;;;6.27;2.63;;;;;;;6.16;55.21;99101.19;4858294;28;97056;-74
2021/03/13 01:56:38;;;;;;;6.20;2.60;;;;;;;6.17;54.89;99101.16;4873781;28;101308;-75
2021/03/13 01:59:04;;;;;;;7.50;3.37;;;;;;;6.29;54.59;99094.66;4857937;28;101461;-74
2021/03/13 02:01:36;;;;;;;6.60;2.17;;;;;;;6.33;54.29;99089.25;4859248;28;96774;-74
2021/03/13 02:04:03;;;;;;;6.53;2.30;;;;;;;6.41;53.96;99088.13;4854608;28;97298;-74
2021/03/13 02:06:29;;;;;;;10.10;2.17;;;;;;;6.50;54.26;99083.41;4873478;28;101157;-74
2021/03/13 02:09:01;;;;;;;6.93;2.57;;;;;;;6.50;54.27;99088.63;4842371;28;100984;-80
2021/03/13 02:12:05;;;;;;;4.97;2.22;;;;;;;6.56;53.89;99082.34;4858544;28;97316;-74
2021/03/13 02:14:40;;;;;;;9.00;2.97;;;;;;;6.60;53.83;99085.69;4888817;28;97507;-74
2021/03/13 02:17:19;;;;;;;4.87;2.03;;;;;;;6.61;53.84;99076.97;4873093;28;98960;-74
2021/03/13 02:20:14;;;;;;;7.70;2.40;;;;;;;6.53;53.97;99087.69;4874945;28;102021;-74
2021/03/13 02:22:42;;;;;;;4.78;2.13;;;;;;;6.50;54.45;99090.41;4860602;28;96680;-73
2021/03/13 02:25:36;;;;;;;6.33;2.30;;;;;;;6.55;54.02;99084.09;4876878;28;96675;-74
2021/03/13 02:28:16;;;;;;;6.43;2.40;;;;;;;6.66;53.93;99081.13;4890534;28;101048;-74
2021/03/13 02:30:43;;;;;;;7.37;2.97;;;;;;;6.72;53.71;99070.44;4891358;28;100988;-74
2021/03/13 02:33:18;;;;;;;8.80;2.20;;;;;;;6.71;53.52;99071.34;4890373;28;97015;-74
2021/03/13 02:36:03;;;;;;;10.53;2.30;;;;;;;6.71;53.32;99073.09;4875827;28;97280;-77
2021/03/13 02:38:44;;;;;;;10.57;2.43;;;;;;;6.89;53.18;99074.13;4890349;28;101644;-74
2021/03/13 02:41:14;;;;;;;5.37;2.30;;;;;;;6.82;53.21;99065.72;4890576;28;100795;-74
2021/03/13 02:43:45;;;;;;;6.80;1.97;;;;;;;6.93;52.75;99067.91;4844595;28;96587;-74
2021/03/13 02:46:14;;;;;;;9.13;2.60;;;;;;;6.92;53.06;99074.03;4890854;28;96768;-74
2021/03/13 02:48:40;;;;;;;6.77;2.53;;;;;;;6.96;52.77;99073.84;4875211;28;101441;-74
2021/03/13 02:51:06;;;;;;;8.40;2.17;;;;;;;6.92;53.02;99068.81;4858898;28;101694;-74
2021/03/13 02:53:34;;;;;;;6.97;2.03;;;;;;;6.98;53.24;99065.94;4890817;28;96614;-75
2021/03/13 02:56:04;;;;;;;3.90;1.93;;;;;;;7.03;53.15;99077.91;4890156;28;96852;-77
2021/03/13 02:58:32;;;;;;;4.27;2.00;;;;;;;7.01;53.26;99071.94;4859378;28;98055;-74
2021/03/13 03:00:58;;;;;;;5.10;1.97;;;;;;;6.95;53.55;99072.16;4890033;28;101517;-74
2021/03/13 03:03:24;;;;;;;3.87;1.90;;;;;;;6.97;54.11;99072.09;4890619;28;96630;-74
2021/03/13 03:06:10;;;;;;;7.87;2.83;;;;;;;7.11;54.52;99087.22;4874318;28;96994;-74
2021/03/13 03:08:41;;;;;;;8.73;2.10;;;;;;;7.06;54.60;99079.56;4891455;28;101039;-74
2021/03/13 03:11:09;;;;;;;6.40;2.67;;;;;;;7.07;54.91;99083.00;4890061;28;101236;-74
2021/03/13 03:13:36;;;;;;;7.53;2.43;;;;;;;6.99;55.33;99084.16;4891292;28;98114;-74
2021/03/13 03:16:06;;;;;;;5.07;2.20;;;;;;;6.96;56.13;99092.13;4858782;28;97086;-79
2021/03/13 03:18:34;;;;;;;5.05;2.58;;;;;;;6.97;56.13;99101.63;4890667;28;100642;-74
2021/03/13 03:21:02;;;;;;;4.40;2.10;;;;;;;6.94;56.48;99100.91;4890258;28;98349;-81
2021/03/13 03:23:28;;;;;;;5.33;2.30;;;;;;;6.91;56.53;99101.88;4891005;28;96578;-74
2021/03/13 03:25:54;;;;;;;9.07;2.40;;;;;;;6.85;57.02;99103.88;4891503;28;96729;-74
2021/03/13 03:28:21;;;;;;;6.53;2.87;;;;;;;6.90;56.88;99105.41;4889923;28;101405;-74
2021/03/13 03:30:54;;;;;;;7.77;2.67;;;;;;;6.82;57.17;99111.81;4874903;28;100378;-74
2021/03/13 03:33:23;;;;;;;9.60;2.70;;;;;;;6.81;57.67;99116.19;4889845;28;96666;-74
2021/03/13 03:35:54;;;;;;;4.10;2.00;;;;;;;6.76;57.64;99113.75;4890252;28;96800;-74
2021/03/13 03:38:23;;;;;;;5.03;2.23;;;;;;;6.90;57.28;99107.16;4889468;28;100124;-74
2021/03/13 03:40:48;;;;;;;5.83;2.67;;;;;;;6.83;57.32;99105.69;4906909;28;101745;-74
2021/03/13 03:43:32;;;;;;;4.83;2.23;;;;;;;6.76;57.68;99107.69;4905402;28;97509;-74
2021/03/13 03:46:00;;;;;;;8.57;2.80;;;;;;;6.77;57.42;99114.59;4874968;28;96976;-74
2021/03/13 03:48:28;;;;;;;5.33;2.83;;;;;;;6.77;57.42;99115.44;4888954;28;100102;-74
2021/03/13 03:51:08;;;;;;;6.67;2.70;;;;;;;6.86;57.33;99113.41;4889403;28;101544;-74
2021/03/13 03:53:41;;;;;;;8.70;2.63;;;;;;;6.76;57.58;99110.28;4859928;28;96879;-74
2021/03/13 03:56:08;;;;;;;5.13;2.87;;;;;;;6.76;57.54;99102.47;4858565;28;97039;-80
2021/03/13 03:58:37;;;;;;;6.57;2.40;;;;;;;6.80;57.64;99109.25;4874717;28;98118;-74
2021/03/13 04:01:06;;;;;;;7.97;2.40;;;;;;;6.86;57.40;99106.41;4890338;28;101240;-74
2021/03/13 04:03:32;;;;;;;4.93;2.23;;;;;;;6.76;57.43;99103.31;4890454;28;96546;-74
2021/03/13 04:05:57;;;;;;;4.47;2.07;;;;;;;6.71;57.64;99112.22;4890893;28;96873;-73
2021/03/13 04:08:23;;;;;;;6.50;2.70;;;;;;;6.73;57.60;99108.66;4873494;28;101006;-73
2021/03/13 04:10:51;;;;;;;5.17;2.87;;;;;;;6.73;57.61;99107.81;4890696;28;101149;-73
2021/03/13 04:13:18;;;;;;;4.97;2.33;;;;;;;6.66;58.02;99117.63;4861213;28;97077;-73
2021/03/13 04:15:45;;;;;;;8.73;2.67;;;;;;;6.61;57.87;99113.47;4893635;28;97242;-73
2021/03/13 04:18:13;;;;;;;7.33;2.70;;;;;;;6.71;58.28;99120.88;4876895;28;97790;-73
2021/03/13 04:20:39;;;;;;;8.50;2.50;;;;;;;6.60;57.84;99120.44;4893363;28;101758;-73
2021/03/13 04:23:06;;;;;;;7.87;2.90;;;;;;;6.62;58.39;99116.00;4893653;28;97114;-73
2021/03/13 04:25:32;;;;;;;5.43;2.63;;;;;;;6.64;57.99;99115.97;4909179;28;96736;-73
2021/03/13 04:27:59;;;;;;;6.03;2.70;;;;;;;6.56;58.49;99113.63;4893518;28;97928;-73
2021/03/13 04:30:25;;;;;;;5.20;2.30;;;;;;;6.55;58.27;99109.34;4892767;28;100753;-73
2021/03/13 04:32:52;;;;;;;8.27;3.60;;;;;;;6.55;58.26;99106.72;4861901;28;96591;-73
2021/03/13 04:35:19;;;;;;;9.43;3.60;;;;;;;6.50;58.53;99109.50;4860489;28;96922;-73
2021/03/13 04:37:46;;;;;;;5.83;2.63;;;;;;;6.42;58.77;99105.47;4861243;28;97295;-73
2021/03/13 04:40:12;;;;;;;6.93;2.87;;;;;;;6.37;58.84;99110.88;4892255;28;101005;-78
2021/03/13 04:42:39;;;;;;;7.53;2.90;;;;;;;6.39;59.13;99122.06;4862018;28;97180;-73
2021/03/13 04:45:08;;;;;;;7.27;2.93;;;;;;;6.50;58.62;99117.31;4877706;28;97035;-73
2021/03/13 04:47:34;;;;;;;6.13;2.50;;;;;;;6.51;58.61;99110.34;4892303;28;101531;-73
2021/03/13 04:50:00;;;;;;;8.20;3.03;;;;;;;6.40;58.92;99108.16;4892990;28;100911;-73
2021/03/13 04:52:26;;;;;;;6.40;2.83;;;;;;;6.48;58.50;99107.84;4892360;28;97050;-73
2021/03/13 04:54:51;;;;;;;7.77;2.70;;;;;;;6.46;58.27;99100.09;4893706;28;96895;-73
2021/03/13 04:57:17;;;;;;;6.03;2.50;;;;;;;6.37;59.09;99104.78;4876199;28;100799;-73
2021/03/13 04:59:42;;;;;;;6.80;2.80;;;;;;;6.38;58.63;99103.88;4876911;28;101248;-73
2021/03/13 05:02:08;;;;;;;7.87;2.97;;;;;;;6.37;58.66;99105.66;4892959;28;96697;-73
2021/03/13 05:04:34;;;;;;;6.80;2.70;;;;;;;6.33;58.75;99102.28;4892484;28;96763;-73
2021/03/13 05:06:59;;;;;;;6.77;3.20;;;;;;;6.40;58.79;99104.66;4893011;28;98407;-73
2021/03/13 05:09:25;;;;;;;6.13;3.13;;;;;;;6.42;58.90;99105.47;4891736;28;101448;-73
2021/03/13 05:11:50;;;;;;;9.33;3.20;;;;;;;6.33;58.84;99115.31;4892951;28;96623;-73
2021/03/13 05:14:16;;;;;;;9.27;3.37;;;;;;;6.41;58.99;99102.00;4891498;28;97034;-73
2021/03/13 05:16:42;;;;;;;7.40;3.20;;;;;;;6.37;58.73;99103.03;4860941;28;101297;-73
2021/03/13 05:19:07;;;;;;;8.00;3.20;;;;;;;6.33;58.77;99117.06;4878704;28;97538;-73
2021/03/13 05:21:33;;;;;;;9.50;4.00;;;;;;;6.28;59.08;99122.47;4844801;28;96565;-73
2021/03/13 05:23:58;;;;;;;6.77;3.30;;;;;;;6.33;58.75;99119.69;4875935;28;96802;-73
2021/03/13 05:26:24;;;;;;;8.03;3.47;;;;;;;6.36;58.75;99124.78;4859407;28;101287;-73
2021/03/13 05:28:50;;;;;;;9.27;3.53;;;;;;;6.35;59.00;99123.09;4860984;28;97813;-73
2021/03/13 05:31:16;;;;;;;5.87;3.03;;;;;;;6.41;58.63;99119.41;4844642;28;96800;-74
2021/03/13 05:33:42;;;;;;;6.90;3.07;;;;;;;6.47;58.35;99117.44;4860918;28;96886;-73
2021/03/13 05:36:08;;;;;;;11.00;3.60;;;;;;;6.44;58.10;99122.75;4876616;28;97937;-73
2021/03/13 05:38:33;;;;;;;9.23;2.70;;;;;;;6.43;57.94;99126.28;4860051;28;98223;-73
2021/03/13 05:40:59;;;;;;;8.93;3.03;;;;;;;6.45;58.28;99115.78;4845039;28;96550;-73
2021/03/13 05:43:25;;;;;;;5.47;2.63;;;;;;;6.51;58.01;99133.81;4844826;28;96794;-73
2021/03/13 05:45:51;;;;;;;7.23;3.10;;;;;;;6.50;58.10;99130.34;4860984;28;97499;-73
2021/03/13 05:48:17;;;;;;;7.17;2.80;;;;;;;6.58;57.88;99135.31;4843819;28;99103;-76
2021/03/13 05:50:44;;;;;;;6.53;3.33;;;;;;;6.60;57.57;99137.84;4860517;28;96993;-73
2021/03/13 05:53:10;;;;;;;6.70;2.73;;;;;;;6.68;57.51;99131.44;4860626;28;97075;-73
2021/03/13 05:55:36;;;;;;;9.60;3.40;;;;;;;6.68;57.42;99135.81;4843827;28;99964;-73
2021/03/13 05:58:02;;;;;;;9.53;3.63;;;;;;;6.69;57.17;99132.28;4860287;28;100784;-73
2021/03/13 06:00:28;;;;;;;8.83;3.80;;;;;;;6.84;57.23;99138.72;4859773;28;96989;-73
2021/03/13 06:02:55;;;;;;;8.07;3.10;;;;;;;6.92;57.23;99142.72;4860530;28;97184;-73
2021/03/13 06:05:20;;;;;;;7.00;3.00;;;;;;;6.95;56.70;99139.13;4875497;28;97249;-74
2021/03/13 06:07:46;;;;;;;6.60;3.07;;;;;;;7.11;56.08;99132.41;4892025;28;101038;-73
2021/03/13 06:10:15;;;;;;;8.87;4.90;;;;;;;7.23;55.85;99138.94;4876203;28;97018;-73
2021/03/13 06:12:41;;;;;;;6.40;2.93;;;;;;;7.25;55.74;99131.91;4860046;28;97101;-73
2021/03/13 06:15:07;;;;;;;9.10;3.70;;;;;;;7.51;55.29;99137.84;4858736;28;97999;-73
2021/03/13 06:18:01;;;;;;;7.13;3.83;;;;;;;7.66;54.74;99134.59;4859249;28;101516;-73
2021/03/13 06:20:35;;;;;;;5.77;2.57;;;;;;;7.80;54.22;99134.88;4843888;28;97160;-74
2021/03/13 06:23:03;;;;;;;6.20;3.20;;;;;;;8.13;54.03;99137.00;4840933;29;96927;-73
2021/03/13 06:25:30;;;;;;;7.60;2.95;;;;;;;7.99;53.72;99136.72;4853324;28;97905;-73
2021/03/13 06:28:19;;;;;;;5.63;2.53;;;;;;;7.95;53.71;99143.84;4882199;28;99254;-74
2021/03/13 06:30:47;;;;;;;6.73;3.37;;;;;;;8.23;53.11;99140.94;4859142;28;97258;-74
2021/03/13 06:33:29;;;;;;;6.67;3.10;;;;;;;8.27;52.73;99141.63;4838343;28;97398;-75
2021/03/13 06:35:57;;;;;;;6.82;3.25;;;;;;;8.93;51.47;99143.94;4833333;28;101041;-74
2021/03/13 06:38:24;;;;;;;5.55;2.83;;;;;;;9.72;49.71;99148.03;4857635;28;100893;-74
2021/03/13 06:40:55;;;;;;;7.50;2.58;;;;;;;10.35;48.97;99134.38;4849346;28;97945;-74
2021/03/13 06:43:25;;;;;;;7.75;3.08;;;;;;;10.99;47.49;99140.63;4853617;28;97495;-78
2021/03/13 06:46:08;;;;;;;7.15;2.58;;;;;;;11.49;46.15;99139.63;4847749;28;101124;-74
2021/03/13 06:48:44;;;;;;;6.28;2.55;;;;;;;11.98;45.16;99149.97;4855247;28;101525;-73
2021/03/13 06:51:33;;;;;;;5.45;2.90;;;;;;;12.48;43.71;99140.03;4874207;28;97254;-75
2021/03/13 06:54:01;;;;;;;5.40;1.90;;;;;;;13.14;42.72;99144.66;4861694;28;97070;-75
2021/03/13 06:56:28;;;;;;;8.23;3.13;;;;;;;13.90;41.91;99135.41;4870282;28;98272;-74
2021/03/13 06:58:54;;;;;;;4.97;2.40;;;;;;;14.54;40.82;99135.50;4858353;28;97972;-75
2021/03/13 07:01:26;;;;;;;4.55;2.20;;;;;;;16.51;37.22;99129.97;4873759;28;96702;-80
2021/03/13 07:03:51;;;;;;;5.25;2.50;;;;;;;19.27;33.17;99136.34;4873954;28;98288;-73
2021/03/13 07:06:18;;;;;;;8.35;2.53;;;;;;;20.88;30.58;99131.34;4854421;28;101242;-77
2021/03/13 07:08:45;;;;;;;6.45;2.78;;;;;;;22.01;29.11;99120.25;4853052;28;101230;-72
2021/03/13 07:11:11;;;;;;;8.18;2.38;;;;;;;22.40;28.52;99137.78;4857959;28;97236;-74
2021/03/13 07:13:42;;;;;;;4.80;2.10;;;;;;;23.07;27.54;99121.97;4874436;28;96943;-72
2021/03/13 07:16:29;;;;;;;5.13;2.17;;;;;;;23.56;27.07;99117.63;4854546;28;101037;-72
2021/03/13 07:18:59;;;;;;;6.25;2.03;;;;;;;24.55;25.97;99113.97;4841748;28;100696;-72
2021/03/13 07:21:25;;;;;;;12.05;4.70;;;;;;;24.55;26.17;99113.09;4857205;28;96821;-72
2021/03/13 07:23:54;;;;;;;8.52;3.28;;;;;;;25.21;25.36;99121.81;4842028;28;97625;-73
2021/03/13 07:26:24;;;;;;;3.50;2.15;;;;;;;25.38;25.27;99122.56;4862561;28;101446;-79
2021/03/13 07:28:50;;;;;;;3.70;2.35;;;;;;;25.35;25.00;99115.69;4873393;28;97413;-72
2021/03/13 07:31:20;;;;;;;5.85;3.10;;;;;;;25.65;24.62;99116.69;4840810;28;97590;-73
2021/03/13 07:33:48;;;;;;;4.18;2.17;;;;;;;25.61;24.62;99114.53;4843035;28;97173;-72
2021/03/13 07:36:17;;;;;;;5.30;3.60;;;;;;;27.03;23.85;99100.28;4857510;28;97892;-73
2021/03/13 07:38:44;;;;;;;3.85;2.60;;;;;;;27.36;23.32;99102.56;4872760;28;97836;-73
2021/03/13 07:41:11;;;;;;;3.47;2.00;;;;;;;27.63;22.79;99105.56;4873666;28;97141;-73
2021/03/13 07:43:38;;;;;;;4.18;2.00;;;;;;;27.94;22.47;99103.41;4872895;28;97266;-73
2021/03/13 07:46:07;;;;;;;6.32;2.00;;;;;;;27.60;22.62;99101.38;4842882;28;101044;-73
2021/03/13 07:48:35;;;;;;;4.07;1.73;;;;;;;27.33;22.75;99102.13;4860290;28;97756;-74
2021/03/13 07:51:01;;;;;;;5.00;2.75;;;;;;;28.25;22.29;99104.09;4860496;28;96736;-74
2021/03/13 07:53:27;;;;;;;3.28;1.67;;;;;;;27.87;22.60;99109.78;4839549;28;97759;-74
2021/03/13 07:55:54;;;;;;;4.18;2.00;;;;;;;28.38;22.11;99107.69;4830089;28;103373;-73
2021/03/13 07:58:20;;;;;;;3.88;1.95;;;;;;;28.98;21.74;99096.47;4859816;28;101412;-78
2021/03/13 08:00:47;;;;;;;5.93;1.95;;;;;;;29.37;21.17;99105.78;4874890;28;96745;-73
2021/03/13 08:03:29;;;;;;;2.60;1.60;;;;;;;28.79;21.88;99096.16;4858833;28;97487;-73
2021/03/13 08:06:14;;;;;;;5.78;1.77;;;;;;;29.19;21.35;99109.88;4871141;28;97669;-73
2021/03/13 08:08:41;;;;;;;2.25;1.50;;;;;;;28.41;21.87;99091.16;4859696;28;101412;-73
2021/03/13 08:11:13;;;;;;;2.75;1.80;;;;;;;28.58;21.46;99088.16;4860805;28;96785;-73
2021/03/13 08:13:38;;;;;;;4.57;1.90;;;;;;;29.18;21.38;99091.19;4861577;28;97412;-73
2021/03/13 08:16:04;;;;;;;4.38;2.13;;;;;;;29.25;21.43;99082.06;4878257;28;101099;-74
2021/03/13 08:18:43;;;;;;;3.22;1.92;;;;;;;30.27;20.60;99077.44;4849028;28;101314;-73
2021/03/13 08:21:18;;;;;;;6.72;2.10;;;;;;;28.42;22.20;99070.38;4858828;28;97374;-73
2021/03/13 08:23:49;;;;;;;4.03;2.00;;;;;;;29.17;21.84;99076.81;4859099;28;96880;-74
2021/03/13 08:26:15;;;;;;;7.03;1.83;;;;;;;29.74;21.03;99080.97;4874365;28;97977;-73
2021/03/13 08:28:47;;;;;;;2.33;1.40;;;;;;;28.13;21.94;99072.25;4842597;28;101253;-73
2021/03/13 08:31:22;;;;;;;2.72;1.50;;;;;;;28.05;21.97;99061.59;4861240;28;97161;-75
2021/03/13 08:33:51;;;;;;;6.35;1.60;;;;;;;27.97;22.25;99069.81;4859330;28;96899;-73
2021/03/13 08:36:19;;;;;;;6.90;2.63;;;;;;;27.31;22.47;99064.59;4855662;28;97979;-73
2021/03/13 08:39:07;;;;;;;2.85;1.50;;;;;;;25.47;24.28;99052.50;4856254;28;101551;-73
2021/03/13 08:41:42;;;;;;;8.65;1.90;;;;;;;26.58;23.41;99059.09;4849082;28;98108;-76
2021/03/13 08:44:26;;;;;;;2.92;1.48;;;;;;;27.02;23.11;99036.69;4876542;28;97164;-73
2021/03/13 08:47:11;;;;;;;2.50;1.20;;;;;;;27.85;22.12;99053.34;4874787;28;98055;-73
2021/03/13 08:49:40;;;;;;;2.55;1.50;;;;;;;28.60;21.63;99046.44;4862499;28;101064;-73
2021/03/13 08:52:05;;;;;;;2.95;1.27;;;;;;;28.28;21.73;99039.78;4871138;28;96880;-73
2021/03/13 08:54:37;;;;;;;3.60;1.40;;;;;;;26.97;22.46;99043.69;4875276;28;96843;-73
2021/03/13 08:57:26;;;;;;;3.42;1.23;;;;;;;24.08;28.73;99036.09;4875115;28;98226;-65
2021/03/13 08:59:51;;;;;;;5.10;1.50;;;;;;;23.10;29.27;99038.69;4856250;28;101539;-64
2021/03/13 09:02:18;;;;;;;5.40;1.98;;;;;;;23.35;27.56;99039.56;4877206;28;97092;-73
2021/03/13 09:04:52;;;;;;;2.33;1.60;;;;;;;22.35;27.47;99031.34;4870340;28;96999;-73
2021/03/13 09:07:24;;;;;;;2.88;1.42;;;;;;;21.62;28.78;99018.28;4879584;28;98179;-73
2021/03/13 09:09:51;;;;;;;6.47;3.75;;;;;;;21.08;29.42;99020.06;4864754;28;98027;-73
2021/03/13 09:12:19;;;;;;;3.10;1.65;;;;;;;19.60;31.16;99014.50;4872151;28;97717;-73
2021/03/13 09:14:46;;;;;;;6.07;1.60;;;;;;;19.04;31.90;99017.84;4853098;28;97109;-72
2021/03/13 09:17:13;;;;;;;4.25;2.42;;;;;;;18.39;33.03;99012.88;4859414;28;101779;-73
2021/03/13 09:19:40;;;;;;;3.47;1.50;;;;;;;18.33;33.13;99014.25;4859000;28;101164;-73
2021/03/13 09:22:32;;;;;;;5.75;2.63;;;;;;;17.07;34.75;99023.94;4856584;28;96921;-73
2021/03/13 09:25:01;;;;;;;3.80;1.40;;;;;;;16.81;35.35;99025.22;4853134;28;97095;-73
2021/03/13 09:27:29;;;;;;;4.13;1.30;;;;;;;16.41;36.17;99031.84;4850404;28;101434;-73
2021/03/13 09:29:57;;;;;;;4.30;1.40;;;;;;;16.15;36.54;99025.94;4859836;28;101135;-72
2021/03/13 09:32:24;;;;;;;7.25;1.52;;;;;;;15.56;37.57;99016.28;4858809;28;97075;-75
2021/03/13 09:34:52;;;;;;;1.52;0.90;;;;;;;15.04;38.30;99012.22;4856661;28;98094;-74
2021/03/13 09:37:22;;;;;;;4.05;1.30;;;;;;;14.64;39.35;99019.53;4858490;28;97421;-73
2021/03/13 09:39:57;;;;;;;1.83;1.27;;;;;;;14.36;39.95;99007.41;4869737;28;100768;-73
2021/03/13 09:42:24;;;;;;;5.20;1.45;;;;;;;14.23;40.42;99015.34;4873337;28;96838;-76
2021/03/13 09:45:01;;;;;;;7.00;2.95;;;;;;;13.98;41.05;99000.34;4854891;28;96669;-73
2021/03/13 09:47:59;;;;;;;3.53;1.20;;;;;;;13.86;41.43;99004.69;4896146;28;98217;-73
2021/03/13 09:50:30;;;;;;;7.32;3.72;;;;;;;13.90;41.37;99002.66;4858539;28;99796;-73
2021/03/13 09:52:56;;;;;;;2.53;1.40;;;;;;;13.96;41.65;98992.56;4859754;28;96883;-73
2021/03/13 09:55:26;;;;;;;4.35;1.40;;;;;;;14.05;41.30;98996.34;4860481;28;97496;-76
2021/03/13 09:57:54;;;;;;;6.85;3.10;;;;;;;14.17;41.48;98995.50;4856127;28;98191;-73
2021/03/13 10:00:33;;;;;;;6.75;4.43;;;;;;;14.24;41.49;98990.63;4870803;28;97893;-72
2021/03/13 10:03:01;;;;;;;4.28;2.58;;;;;;;13.87;41.82;98989.69;4855511;28;97005;-73
2021/03/13 10:05:29;;;;;;;5.30;2.95;;;;;;;13.87;42.08;98982.63;4892250;28;97255;-73
2021/03/13 10:07:55;;;;;;;3.25;1.40;;;;;;;13.67;42.25;98981.38;4839603;28;98222;-73
2021/03/13 10:10:23;;;;;;;3.80;2.78;;;;;;;13.61;42.37;98975.66;4855677;28;97549;-73
2021/03/13 10:12:53;;;;;;;3.20;1.27;;;;;;;13.67;42.21;98968.19;4857985;28;96749;-73
2021/03/13 10:15:27;;;;;;;2.63;1.35;;;;;;;13.56;42.71;98971.53;4857434;28;97210;-73
2021/03/13 10:18:03;;;;;;;5.55;1.73;;;;;;;13.68;42.56;98975.13;4859007;28;101289;-73
2021/03/13 10:20:53;;;;;;;2.42;1.25;;;;;;;13.78;42.16;98962.16;4874263;28;101245;-73
2021/03/13 10:23:31;;;;;;;2.78;1.00;;;;;;;13.59;42.86;98966.06;4880334;28;97233;-73
2021/03/13 10:26:14;;;;;;;4.53;1.15;;;;;;;13.73;42.58;98967.75;4846818;29;98297;-73
2021/03/13 10:28:50;;;;;;;3.53;1.10;;;;;;;13.56;43.06;98971.53;4844525;28;97480;-73
2021/03/13 10:31:19;;;;;;;1.42;1.08;;;;;;;13.35;43.68;98962.41;4872115;28;97973;-74
2021/03/13 10:33:45;;;;;;;3.80;1.10;;;;;;;13.22;43.62;98957.09;4852306;28;98294;-73
2021/03/13 10:36:13;;;;;;;5.63;1.10;;;;;;;13.20;44.68;98956.34;4853714;28;96956;-73
2021/03/13 10:38:46;;;;;;;4.30;1.10;;;;;;;13.22;44.58;98954.47;4870210;28;98178;-74
2021/03/13 10:41:20;;;;;;;1.98;1.20;;;;;;;13.07;44.64;98944.94;4876769;28;99037;-73
2021/03/13 10:43:46;;;;;;;2.75;1.50;;;;;;;12.95;45.40;98943.97;4873705;28;97404;-73
2021/03/13 10:46:14;;;;;;;2.72;1.25;;;;;;;12.88;45.50;98940.03;4856643;28;97577;-73
2021/03/13 10:48:54;;;;;;;4.05;1.73;;;;;;;12.91;45.63;98926.66;4872588;28;97476;-73
2021/03/13 10:51:29;;;;;;;2.47;1.50;;;;;;;12.92;45.55;98925.75;4868751;28;101315;-73
2021/03/13 10:53:59;;;;;;;6.35;1.48;;;;;;;12.74;46.46;98921.66;4859662;28;96924;-73
2021/03/13 10:56:37;;;;;;;5.80;1.60;;;;;;;12.64;46.98;98924.06;4856190;28;96800;-74
2021/03/13 10:59:03;;;;;;;6.53;1.52;;;;;;;12.55;46.59;98922.84;4871501;28;98152;-75
2021/03/13 11:01:29;;;;;;;7.22;1.80;;;;;;;12.42;47.02;98919.31;4855241;28;100925;-73
2021/03/13 11:03:54;;;;;;;2.78;1.33;;;;;;;12.52;46.78;98916.94;4871720;28;96934;-73
2021/03/13 11:06:28;;;;;;;4.50;1.73;;;;;;;12.42;47.60;98909.66;4873494;28;97237;-75
2021/03/13 11:08:55;;;;;;;8.00;2.20;;;;;;;12.45;47.18;98914.72;4871962;28;98443;-73
2021/03/13 11:11:21;;;;;;;2.58;1.52;;;;;;;12.37;47.57;98901.19;4871954;28;98536;-74
2021/03/13 11:13:46;;;;;;;4.90;1.75;;;;;;;12.44;47.74;98894.59;4872910;28;96685;-73
2021/03/13 11:16:12;;;;;;;4.65;1.52;;;;;;;12.40;47.62;98897.53;4871683;28;97218;-73
2021/03/13 11:18:38;;;;;;;3.28;1.88;;;;;;;12.37;47.73;98900.34;4870891;28;98060;-73
2021/03/13 11:21:04;;;;;;;5.47;1.83;;;;;;;12.41;47.44;98888.69;4873662;28;97921;-74
2021/03/13 11:23:30;;;;;;;3.75;1.92;;;;;;;12.39;47.69;98887.91;4854267;28;96827;-73
2021/03/13 11:25:56;;;;;;;10.88;3.40;;;;;;;12.29;48.02;98871.88;4894658;28;97101;-74
2021/03/13 11:28:21;;;;;;;2.92;1.63;;;;;;;12.29;48.12;98887.69;4877589;28;101248;-73
2021/03/13 11:30:48;;;;;;;4.93;1.90;;;;;;;12.19;48.41;98870.81;4892970;28;97853;-74
2021/03/13 11:33:14;;;;;;;5.45;1.90;;;;;;;12.16;48.26;98866.56;4878354;28;96750;-73
2021/03/13 11:35:40;;;;;;;7.95;3.72;;;;;;;12.20;48.15;98865.44;4874043;28;97750;-73
2021/03/13 11:38:06;;;;;;;3.72;2.28;;;;;;;12.30;48.01;98863.03;4858312;28;98116;-73
2021/03/13 11:40:31;;;;;;;5.45;3.08;;;;;;;12.25;48.54;98857.25;4890206;28;97763;-74
2021/03/13 11:43:00;;;;;;;6.40;3.33;;;;;;;12.17;48.03;98851.63;4874191;28;97270;-72
2021/03/13 11:45:27;;;;;;;10.27;4.00;;;;;;;12.12;48.67;98853.72;4875940;28;97218;-73